Time;durP1;ratioP1;P1;durP2;ratioP2;P2;SDS_P1;SDS_P2;PMS_P1;PMS_P2;Temp;Humidity;BMP_temperature;BMP_pressure;BME280_temperature;BME280_humidity;BME280_pressure;Samples;Min_cycle;Max_cycle;Signal;HPM_P1;HPM_P2
2022/07/29 00:01:52;;;;;;;;;;;;;;;24.35;60.51;99678.81;4442491;32;20013;-93
2022/07/29 00:04:17;;;;;;;;;;;;;;;24.37;60.53;99674.19;4437315;32;20003;-93
2022/07/29 00:06:42;;;;;;;;;;;;;;;24.52;60.53;99671.97;4426282;32;20012;-91
2022/07/29 00:09:08;;;;;;;;;;;;;;;24.46;60.53;99673.37;4429158;32;19988;-91
2022/07/29 00:11:33;;;;;;;;;;;;;;;24.48;60.52;99674.09;4455873;32;19985;-91
2022/07/29 00:13:58;;;;;;;;;;;;;;;24.55;60.53;99682.34;4441159;32;20024;-91
2022/07/29 00:16:23;;;;;;;;;;;;;;;24.61;60.53;99679.16;4440899;32;20029;-89
2022/07/29 00:18:48;;;;;;;;;;;;;;;24.79;60.54;99686.25;4440415;32;25530;-88
2022/07/29 00:21:14;;;;;;;;;;;;;;;24.77;60.54;99677.56;4440717;32;19997;-89
2022/07/29 00:23:39;;;;;;;;;;;;;;;24.72;60.54;99679.00;4441332;32;20392;-89
2022/07/29 00:26:04;;;;;;;;;;;;;;;24.82;60.54;99677.16;4440765;32;19985;-90
2022/07/29 00:28:29;;;;;;;;;;;;;;;24.84;60.55;99677.84;4441207;32;19997;-89
2022/07/29 00:30:55;;;;;;;;;;;;;;;24.92;60.55;99674.50;4440808;32;26042;-89
2022/07/29 00:33:21;;;;;;;;;;;;;;;25.06;60.56;99669.56;4441578;32;20008;-89
2022/07/29 00:35:47;;;;;;;;;;;;;;;25.02;60.55;99672.66;4442673;32;19985;-88
2022/07/29 00:38:16;;;;;;;;;;;;;;;25.21;60.56;99674.47;4443009;32;20012;-89
2022/07/29 00:40:41;;;;;;;;;;;;;;;25.24;60.56;99675.00;4448708;32;19965;-90
2022/07/29 00:43:07;;;;;;;;;;;;;;;25.22;60.57;99671.66;4450522;32;21865;-90
2022/07/29 00:45:32;;;;;;;;;;;;;;;25.34;60.57;99665.19;4438423;32;20366;-90
2022/07/29 00:47:57;;;;;;;;;;;;;;;25.32;60.57;99666.31;4425404;32;19993;-90
2022/07/29 00:50:22;;;;;;;;;;;;;;;25.24;60.57;99671.50;4439401;32;20326;-89
2022/07/29 00:52:48;;;;;;;;;;;;;;;25.26;60.56;99670.38;4440796;32;19997;-90
2022/07/29 00:55:14;;;;;;;;;;;;;;;25.31;60.57;99670.78;4440847;32;20007;-89
2022/07/29 00:57:40;;;;;;;;;;;;;;;25.34;60.57;99667.00;4440995;32;20330;-90
2022/07/29 01:00:06;;;;;;;;;;;;;;;25.36;60.57;99673.87;4454940;32;20009;-89
2022/07/29 01:02:31;;;;;;;;;;;;;;;25.43;60.57;99675.94;4455040;32;19978;-90
2022/07/29 01:04:56;;;;;;;;;;;;;;;25.46;60.58;99663.16;4453372;32;19981;-89
2022/07/29 01:07:22;;;;;;;;;;;;;;;25.39;60.58;99659.41;4440623;32;19993;-90
2022/07/29 01:09:47;;;;;;;;;;;;;;;25.42;60.57;99660.94;4440460;32;19999;-90
2022/07/29 01:12:21;;;;;;;;;;;;;;;25.48;60.58;99660.34;4440445;32;20024;-88
2022/07/29 01:14:46;;;;;;;;;;;;;;;25.62;60.59;99659.88;4453675;32;20376;-89
2022/07/29 01:17:12;;;;;;;;;;;;;;;25.55;60.58;99656.09;4440452;32;19980;-90
2022/07/29 01:19:49;;;;;;;;;;;;;;;25.50;60.58;99659.22;4440700;32;19997;-91
2022/07/29 01:22:24;;;;;;;;;;;;;;;25.42;60.58;99658.28;4453845;32;20587;-91
2022/07/29 01:24:55;;;;;;;;;;;;;;;25.36;60.57;99663.22;4455486;32;19973;-92
2022/07/29 01:27:23;;;;;;;;;;;;;;;25.44;60.57;99664.28;4440787;32;19981;-90
2022/07/29 01:29:49;;;;;;;;;;;;;;;25.47;60.58;99664.00;4454665;32;19969;-90
2022/07/29 01:32:15;;;;;;;;;;;;;;;25.46;60.58;99657.81;4440367;32;20315;-91
2022/07/29 01:34:40;;;;;;;;;;;;;;;25.38;60.58;99658.56;4440753;32;20439;-91
2022/07/29 01:37:26;;;;;;;;;;;;;;;25.52;60.57;99656.41;4453636;32;19981;-91
2022/07/29 01:39:52;;;;;;;;;;;;;;;25.48;60.58;99655.00;4440308;32;20016;-88
2022/07/29 01:42:24;;;;;;;;;;;;;;;25.45;60.58;99660.63;4440452;32;20007;-88
2022/07/29 01:44:57;;;;;;;;;;;;;;;25.45;60.58;99656.16;4440286;32;19997;-89
2022/07/29 01:47:23;;;;;;;;;;;;;;;25.35;60.57;99653.53;4440429;32;19988;-89
2022/07/29 01:49:50;;;;;;;;;;;;;;;25.45;60.58;99656.16;4440246;32;19985;-89
2022/07/29 01:52:18;;;;;;;;;;;;;;;25.42;60.57;99659.09;4440363;32;20074;-89
2022/07/29 01:54:45;;;;;;;;;;;;;;;25.38;60.57;99653.25;4440416;32;20007;-89
2022/07/29 01:57:14;;;;;;;;;;;;;;;25.39;60.57;99652.25;4440466;32;19996;-88
2022/07/29 01:59:40;;;;;;;;;;;;;;;25.43;60.58;99649.28;4432634;32;19974;-89
2022/07/29 02:02:08;;;;;;;;;;;;;;;25.42;60.58;99650.28;4425057;32;19993;-88
2022/07/29 02:04:33;;;;;;;;;;;;;;;25.29;60.57;99656.75;4440859;32;20005;-89
2022/07/29 02:07:01;;;;;;;;;;;;;;;25.50;60.57;99648.53;4440407;32;20033;-89
2022/07/29 02:09:26;;;;;;;;;;;;;;;25.32;60.57;99645.84;4440606;32;19973;-89
2022/07/29 02:11:52;;;;;;;;;;;;;;;25.32;60.57;99651.16;4440431;32;20137;-89
2022/07/29 02:14:21;;;;;;;;;;;;;;;25.24;60.56;99656.34;4440922;32;19989;-88
2022/07/29 02:16:47;;;;;;;;;;;;;;;25.38;60.57;99655.06;4441525;32;20000;-88
2022/07/29 02:19:12;;;;;;;;;;;;;;;25.33;60.57;99650.19;4441622;32;19949;-87
2022/07/29 02:21:37;;;;;;;;;;;;;;;25.38;60.57;99647.06;4464716;32;20000;-88
2022/07/29 02:24:02;;;;;;;;;;;;;;;25.30;60.57;99641.59;4437381;32;20063;-88
2022/07/29 02:26:28;;;;;;;;;;;;;;;25.26;60.56;99649.06;4456555;32;19981;-89
2022/07/29 02:28:54;;;;;;;;;;;;;;;25.26;60.56;99643.72;4440675;32;20000;-91
2022/07/29 02:31:20;;;;;;;;;;;;;;;25.14;60.57;99641.41;4440379;32;19988;-91
2022/07/29 02:33:45;;;;;;;;;;;;;;;25.16;60.56;99636.75;4440753;32;19997;-92
2022/07/29 02:36:11;;;;;;;;;;;;;;;25.10;60.56;99640.84;4440877;32;19969;-92
2022/07/29 02:38:51;;;;;;;;;;;;;;;25.00;60.56;99640.84;4440113;32;19973;-90
2022/07/29 02:41:21;;;;;;;;;;;;;;;25.02;60.55;99638.88;4429839;32;20049;-90
2022/07/29 02:43:47;;;;;;;;;;;;;;;24.99;60.55;99636.53;4437169;32;19997;-89
2022/07/29 02:46:14;;;;;;;;;;;;;;;25.01;60.55;99637.22;4431342;32;19988;-89
2022/07/29 02:48:44;;;;;;;;;;;;;;;24.96;60.55;99643.94;4425535;32;20000;-90
2022/07/29 02:51:12;;;;;;;;;;;;;;;24.86;60.55;99635.13;4439924;32;20001;-89
2022/07/29 02:53:37;;;;;;;;;;;;;;;24.81;60.54;99640.84;4439879;32;20042;-88
2022/07/29 02:56:04;;;;;;;;;;;;;;;24.89;60.54;99642.81;4439673;32;20017;-89
2022/07/29 02:58:29;;;;;;;;;;;;;;;24.84;60.55;99642.37;4440015;32;19973;-89
2022/07/29 03:00:59;;;;;;;;;;;;;;;24.78;60.54;99641.97;4454084;32;20051;-91
2022/07/29 03:03:25;;;;;;;;;;;;;;;24.59;60.52;99635.84;4439861;32;19982;-90
2022/07/29 03:05:52;;;;;;;;;;;;;;;24.59;60.54;99642.00;4439919;32;19984;-90
2022/07/29 03:08:17;;;;;;;;;;;;;;;24.58;60.54;99640.31;4440043;32;19977;-90
2022/07/29 03:10:43;;;;;;;;;;;;;;;24.56;60.52;99644.94;4439254;32;20275;-88
2022/07/29 03:13:09;;;;;;;;;;;;;;;24.53;60.53;99650.56;4439918;32;20000;-89
2022/07/29 03:15:34;;;;;;;;;;;;;;;24.48;60.52;99648.31;4439693;32;20267;-87
2022/07/29 03:17:59;;;;;;;;;;;;;;;24.39;60.52;99649.16;4439321;32;22236;-87
2022/07/29 03:20:24;;;;;;;;;;;;;;;24.34;60.51;99647.88;4453841;32;19996;-87
2022/07/29 03:22:50;;;;;;;;;;;;;;;24.35;60.51;99644.25;4453780;32;20005;-87
2022/07/29 03:25:16;;;;;;;;;;;;;;;24.24;60.51;99645.19;4438998;32;28914;-87
2022/07/29 03:27:41;;;;;;;;;;;;;;;24.31;60.52;99648.16;4439424;32;19996;-87
2022/07/29 03:30:07;;;;;;;;;;;;;;;24.23;60.51;99648.00;4438238;32;20039;-87
2022/07/29 03:32:32;;;;;;;;;;;;;;;24.22;60.52;99649.81;4439294;32;19984;-89
2022/07/29 03:34:57;;;;;;;;;;;;;;;24.30;60.52;99644.66;4439604;32;19992;-89
2022/07/29 03:37:22;;;;;;;;;;;;;;;24.31;60.52;99648.16;4439551;32;20281;-89
2022/07/29 03:39:48;;;;;;;;;;;;;;;24.29;60.52;99652.78;4438945;32;23467;-91
2022/07/29 03:42:13;;;;;;;;;;;;;;;24.31;60.52;99653.47;4426787;32;20011;-89
2022/07/29 03:44:39;;;;;;;;;;;;;;;24.22;60.51;99655.12;4439366;32;20000;-89
2022/07/29 03:47:04;;;;;;;;;;;;;;;24.25;60.51;99648.69;4439271;32;19989;-90
2022/07/29 03:49:29;;;;;;;;;;;;;;;24.18;60.50;99653.72;4439847;32;20043;-90
2022/07/29 03:51:54;;;;;;;;;;;;;;;24.25;60.51;99654.00;4440026;32;20021;-89
2022/07/29 03:54:20;;;;;;;;;;;;;;;24.21;60.53;99650.78;4433387;32;20025;-90
2022/07/29 03:56:47;;;;;;;;;;;;;;;24.22;60.52;99651.63;4450764;32;20018;-89
2022/07/29 03:59:12;;;;;;;;;;;;;;;24.25;60.51;99646.03;4442451;32;20361;-90
2022/07/29 04:01:38;;;;;;;;;;;;;;;24.32;60.51;99650.69;4444522;32;19985;-89
2022/07/29 04:04:04;;;;;;;;;;;;;;;24.30;60.51;99659.78;4463284;32;20005;-89
2022/07/29 04:06:36;;;;;;;;;;;;;;;24.33;60.52;99652.38;4440926;32;19977;-88
2022/07/29 04:09:02;;;;;;;;;;;;;;;24.39;60.52;99659.81;4438934;32;20005;-89
2022/07/29 04:11:27;;;;;;;;;;;;;;;24.47;60.53;99664.44;4431481;32;20069;-89
2022/07/29 04:13:52;;;;;;;;;;;;;;;24.54;60.53;99654.06;4435357;32;20042;-89
2022/07/29 04:16:17;;;;;;;;;;;;;;;24.54;60.53;99662.88;4438348;32;24700;-89
2022/07/29 04:18:43;;;;;;;;;;;;;;;24.58;60.54;99664.28;4438629;32;20001;-88
2022/07/29 04:21:08;;;;;;;;;;;;;;;24.57;60.52;99662.59;4438456;32;20728;-89
2022/07/29 04:23:33;;;;;;;;;;;;;;;24.64;60.53;99658.41;4438910;32;20008;-89
2022/07/29 04:26:00;;;;;;;;;;;;;;;24.67;60.52;99657.28;4438118;32;20850;-89
2022/07/29 04:28:25;;;;;;;;;;;;;;;24.74;60.54;99648.59;4439002;32;19985;-89
2022/07/29 04:30:51;;;;;;;;;;;;;;;24.81;60.54;99651.50;4427507;32;19977;-91
2022/07/29 04:33:16;;;;;;;;;;;;;;;24.94;60.54;99653.88;4438139;32;20000;-91
2022/07/29 04:35:41;;;;;;;;;;;;;;;24.99;60.55;99656.97;4438121;32;19996;-89
2022/07/29 04:38:07;;;;;;;;;;;;;;;25.07;60.56;99657.94;4438333;32;20026;-89
2022/07/29 04:40:32;;;;;;;;;;;;;;;25.27;60.56;99655.22;4438454;32;20026;-89
2022/07/29 04:42:58;;;;;;;;;;;;;;;25.30;60.57;99652.25;4440111;32;19970;-89
2022/07/29 04:45:23;;;;;;;;;;;;;;;25.26;60.56;99657.06;4454951;32;20030;-89
2022/07/29 04:47:49;;;;;;;;;;;;;;;25.44;60.58;99657.13;4455496;32;20483;-89
2022/07/29 04:50:14;;;;;;;;;;;;;;;25.54;60.58;99654.41;4441271;32;20032;-89
2022/07/29 04:52:39;;;;;;;;;;;;;;;25.59;60.58;99653.00;4440888;32;20227;-89
2022/07/29 04:55:05;;;;;;;;;;;;;;;25.66;60.58;99655.91;4440718;32;23922;-89
2022/07/29 04:57:31;;;;;;;;;;;;;;;25.84;60.59;99653.34;4441850;32;20006;-89
2022/07/29 04:59:56;;;;;;;;;;;;;;;25.86;60.60;99646.88;4441319;32;20004;-87
2022/07/29 05:02:30;;;;;;;;;;;;;;;26.00;60.60;99656.19;4439896;32;29881;-89
2022/07/29 05:04:56;;;;;;;;;;;;;;;26.26;60.62;99656.28;4441996;32;20089;-89
2022/07/29 05:07:21;;;;;;;;;;;;;;;26.34;60.62;99652.88;4444945;32;19989;-89
2022/07/29 05:09:56;;;;;;;;;;;;;;;26.55;60.63;99650.78;4440193;32;20021;-89
2022/07/29 05:12:22;;;;;;;;;;;;;;;26.50;60.63;99648.56;4457999;32;19977;-89
2022/07/29 05:14:47;;;;;;;;;;;;;;;26.73;60.64;99653.41;4446619;32;19999;-86
2022/07/29 05:17:13;;;;;;;;;;;;;;;26.68;60.64;99656.53;4458863;32;20017;-89
2022/07/29 05:19:38;;;;;;;;;;;;;;;26.76;60.64;99656.63;4454964;32;20250;-90
2022/07/29 05:22:30;;;;;;;;;;;;;;;26.77;60.64;99649.47;4444256;32;19991;-89
2022/07/29 05:24:58;;;;;;;;;;;;;;;26.99;60.65;99642.78;4461926;32;19973;-89
2022/07/29 05:27:58;;;;;;;;;;;;;;;27.15;60.66;99648.22;4434138;32;19992;-89
2022/07/29 05:30:30;;;;;;;;;;;;;;;27.01;60.65;99647.00;4466533;32;19957;-86
2022/07/29 05:32:55;;;;;;;;;;;;;;;27.19;60.66;99646.91;4454149;32;19973;-86
2022/07/29 05:35:26;;;;;;;;;;;;;;;27.20;60.66;99649.44;4437320;32;23108;-87
2022/07/29 05:37:52;;;;;;;;;;;;;;;27.31;60.66;99650.19;4447115;32;19992;-85
2022/07/29 05:40:17;;;;;;;;;;;;;;;27.30;60.66;99653.84;4455938;32;20549;-86
2022/07/29 05:42:42;;;;;;;;;;;;;;;27.43;60.67;99649.72;4461838;32;20235;-86
2022/07/29 05:45:08;;;;;;;;;;;;;;;27.56;60.67;99657.31;4447751;32;32124;-86
2022/07/29 05:47:33;;;;;;;;;;;;;;;27.45;60.68;99653.09;4455452;32;19993;-85
2022/07/29 05:49:58;;;;;;;;;;;;;;;27.58;60.67;99658.00;4454468;32;20029;-86
2022/07/29 05:52:23;;;;;;;;;;;;;;;27.60;60.68;99661.34;4439625;32;22956;-86
2022/07/29 05:54:48;;;;;;;;;;;;;;;27.59;60.69;99656.16;4438561;32;27676;-86
2022/07/29 05:57:17;;;;;;;;;;;;;;;27.65;60.68;99661.72;4453651;32;23693;-86
2022/07/29 05:59:42;;;;;;;;;;;;;;;27.69;60.68;99667.63;4440193;32;19993;-86
2022/07/29 06:02:08;;;;;;;;;;;;;;;27.57;60.67;99661.66;4439258;32;29406;-86
2022/07/29 06:04:33;;;;;;;;;;;;;;;27.68;60.68;99669.47;4452851;32;19981;-86
2022/07/29 06:06:58;;;;;;;;;;;;;;;27.75;60.69;99666.97;4454075;32;19993;-86
2022/07/29 06:09:23;;;;;;;;;;;;;;;27.89;60.69;99666.34;4453540;32;30955;-86
2022/07/29 06:11:49;;;;;;;;;;;;;;;27.94;60.70;99666.72;4440288;32;20016;-86
2022/07/29 06:14:14;;;;;;;;;;;;;;;28.04;60.70;99664.72;4454185;32;19981;-86
2022/07/29 06:16:39;;;;;;;;;;;;;;;28.12;60.71;99669.25;4454305;32;20025;-86
2022/07/29 06:19:04;;;;;;;;;;;;;;;28.05;60.71;99668.25;4440156;32;20013;-86
2022/07/29 06:21:30;;;;;;;;;;;;;;;28.09;60.71;99672.25;4440241;32;20035;-86
2022/07/29 06:23:55;;;;;;;;;;;;;;;28.13;60.71;99674.44;4453697;32;26848;-86
2022/07/29 06:26:20;;;;;;;;;;;;;;;28.28;60.71;99669.34;4453774;32;28808;-86
2022/07/29 06:28:45;;;;;;;;;;;;;;;28.27;60.71;99667.66;4439566;32;25636;-86
2022/07/29 06:31:11;;;;;;;;;;;;;;;28.43;60.72;99673.03;4454029;32;19973;-86
2022/07/29 06:33:36;;;;;;;;;;;;;;;28.51;60.72;99668.69;4454282;32;19988;-86
2022/07/29 06:36:03;;;;;;;;;;;;;;;28.62;60.74;99671.88;4453654;32;21931;-86
2022/07/29 06:38:28;;;;;;;;;;;;;;;28.69;60.74;99672.06;4454490;32;20318;-86
2022/07/29 06:40:59;;;;;;;;;;;;;;;28.82;60.74;99679.56;4454038;32;19985;-86
2022/07/29 06:43:25;;;;;;;;;;;;;;;28.95;60.75;99675.44;4439756;32;19993;-86
2022/07/29 06:45:50;;;;;;;;;;;;;;;29.26;60.77;99680.06;4440098;32;20035;-86
2022/07/29 06:48:15;;;;;;;;;;;;;;;29.49;60.78;99678.38;4428765;32;23074;-86
2022/07/29 06:50:40;;;;;;;;;;;;;;;29.50;60.78;99681.87;4454100;32;20009;-86
2022/07/29 06:53:06;;;;;;;;;;;;;;;29.52;60.78;99680.69;4453702;32;26007;-87
2022/07/29 06:55:31;;;;;;;;;;;;;;;29.62;60.78;99673.31;4449949;32;26879;-86
2022/07/29 06:57:56;;;;;;;;;;;;;;;29.74;60.79;99673.75;4432705;32;20003;-86
2022/07/29 07:00:21;;;;;;;;;;;;;;;29.79;60.79;99674.06;4452042;32;33170;-87
2022/07/29 07:02:47;;;;;;;;;;;;;;;29.92;60.80;99671.66;4447991;32;20039;-86
2022/07/29 07:05:12;;;;;;;;;;;;;;;29.94;60.80;99672.31;4449179;32;20012;-86
2022/07/29 07:07:38;;;;;;;;;;;;;;;30.08;60.81;99672.63;4452869;32;20001;-86
2022/07/29 07:10:03;;;;;;;;;;;;;;;30.18;60.80;99665.19;4439603;32;24278;-86
2022/07/29 07:12:28;;;;;;;;;;;;;;;30.27;60.82;99669.47;4454190;32;19962;-86
2022/07/29 07:14:53;;;;;;;;;;;;;;;30.22;60.81;99667.31;4453904;32;22648;-87
2022/07/29 07:17:19;;;;;;;;;;;;;;;30.28;60.82;99662.25;4440626;32;19995;-86
2022/07/29 07:19:44;;;;;;;;;;;;;;;30.24;60.81;99667.97;4453565;32;32076;-86
2022/07/29 07:22:10;;;;;;;;;;;;;;;30.40;60.82;99671.59;4454805;32;19977;-86
2022/07/29 07:24:35;;;;;;;;;;;;;;;30.50;60.82;99666.81;4449972;32;26616;-85
2022/07/29 07:27:00;;;;;;;;;;;;;;;30.41;60.82;99663.34;4455387;32;27977;-86
2022/07/29 07:29:25;;;;;;;;;;;;;;;30.59;60.83;99663.06;4453667;32;20019;-86
2022/07/29 07:31:51;;;;;;;;;;;;;;;30.79;60.84;99669.66;4439554;32;19985;-86
2022/07/29 07:34:16;;;;;;;;;;;;;;;30.90;60.84;99662.16;4438549;32;32927;-86
2022/07/29 07:36:41;;;;;;;;;;;;;;;30.84;60.85;99661.88;4453519;32;20003;-86
2022/07/29 07:39:06;;;;;;;;;;;;;;;30.91;60.84;99661.12;4453157;32;24185;-86
2022/07/29 07:41:32;;;;;;;;;;;;;;;30.89;60.84;99652.41;4448116;32;19977;-86
2022/07/29 07:43:57;;;;;;;;;;;;;;;30.85;60.85;99660.84;4452940;32;21443;-86
2022/07/29 07:46:22;;;;;;;;;;;;;;;30.98;60.85;99659.38;4438760;32;26495;-86
2022/07/29 07:48:47;;;;;;;;;;;;;;;31.13;60.86;99657.56;4438501;32;24005;-86
2022/07/29 07:51:13;;;;;;;;;;;;;;;31.29;60.86;99654.75;4453487;32;19992;-86
2022/07/29 07:53:38;;;;;;;;;;;;;;;31.45;60.87;99651.00;4453117;32;20018;-86
2022/07/29 07:56:04;;;;;;;;;;;;;;;31.40;60.88;99658.81;4452060;32;19989;-85
2022/07/29 07:58:29;;;;;;;;;;;;;;;31.27;60.87;99658.63;4453279;32;20309;-86
2022/07/29 08:00:55;;;;;;;;;;;;;;;31.32;60.87;99657.06;4451619;32;22334;-86
2022/07/29 08:03:20;;;;;;;;;;;;;;;31.40;60.88;99651.56;4453176;32;20376;-86
2022/07/29 08:05:46;;;;;;;;;;;;;;;31.46;60.88;99650.81;4438305;32;30131;-86
2022/07/29 08:08:11;;;;;;;;;;;;;;;31.56;60.89;99653.25;4439168;32;20280;-86
2022/07/29 08:10:52;;;;;;;;;;;;;;;31.79;60.88;99653.16;4438098;32;26130;-86
2022/07/29 08:13:17;;;;;;;;;;;;;;;31.75;60.89;99649.19;4453092;32;19986;-86
2022/07/29 08:15:44;;;;;;;;;;;;;;;31.64;60.88;99645.06;4428036;32;20023;-86
2022/07/29 08:18:09;;;;;;;;;;;;;;;31.71;60.89;99651.41;4454828;32;19965;-86
2022/07/29 08:20:35;;;;;;;;;;;;;;;31.83;60.89;99648.22;4455355;32;20379;-86
2022/07/29 08:23:01;;;;;;;;;;;;;;;31.94;60.89;99655.81;4441002;32;20013;-86
2022/07/29 08:25:26;;;;;;;;;;;;;;;31.98;60.90;99651.75;4428221;32;20004;-86
2022/07/29 08:27:51;;;;;;;;;;;;;;;32.08;60.91;99652.25;4454242;32;34924;-85
2022/07/29 08:30:16;;;;;;;;;;;;;;;32.28;60.92;99645.25;4454448;32;27857;-86
2022/07/29 08:32:41;;;;;;;;;;;;;;;32.40;60.92;99653.66;4440912;32;19981;-86
2022/07/29 08:35:07;;;;;;;;;;;;;;;32.57;60.93;99644.28;4440947;32;20003;-86
2022/07/29 08:37:32;;;;;;;;;;;;;;;32.84;60.95;99634.59;4440499;32;20294;-86
2022/07/29 08:39:58;;;;;;;;;;;;;;;32.99;60.96;99637.22;4444455;32;20001;-85
2022/07/29 08:42:23;;;;;;;;;;;;;;;33.32;60.97;99626.66;4455074;32;20009;-86
2022/07/29 08:44:48;;;;;;;;;;;;;;;33.64;60.99;99633.28;4439973;32;30525;-85
2022/07/29 08:47:13;;;;;;;;;;;;;;;33.76;60.99;99628.94;4440843;32;20012;-86
2022/07/29 08:49:39;;;;;;;;;;;;;;;33.89;61.00;99632.78;4453599;32;19981;-85
2022/07/29 08:52:04;;;;;;;;;;;;;;;34.05;61.01;99624.28;4454552;32;19985;-86
2022/07/29 08:54:29;;;;;;;;;;;;;;;34.13;61.01;99624.12;4441050;32;19989;-86
2022/07/29 08:56:54;;;;;;;;;;;;;;;34.40;61.02;99619.63;4440592;32;19977;-86
2022/07/29 08:59:23;;;;;;;;;;;;;;;34.54;61.03;99615.88;4440239;32;29026;-86
2022/07/29 09:01:48;;;;;;;;;;;;;;;34.84;61.03;99616.34;4448829;32;20005;-86
2022/07/29 09:04:13;;;;;;;;;;;;;;;34.90;61.04;99617.34;4441699;32;19981;-86
2022/07/29 09:06:42;;;;;;;;;;;;;;;34.70;61.04;99615.47;4465919;32;33602;-86
2022/07/29 09:09:08;;;;;;;;;;;;;;;34.83;61.04;99619.22;4454858;32;20366;-86
2022/07/29 09:11:33;;;;;;;;;;;;;;;34.78;61.04;99615.28;4446670;32;20316;-86
2022/07/29 09:13:59;;;;;;;;;;;;;;;34.82;61.04;99621.09;4437636;32;20012;-86
2022/07/29 09:16:24;;;;;;;;;;;;;;;34.94;61.05;99611.31;4454623;32;20071;-86
2022/07/29 09:18:49;;;;;;;;;;;;;;;35.26;61.06;99611.47;4454299;32;21274;-86
2022/07/29 09:24:00;;;;;;;;;;;;;;;35.54;61.07;99611.22;4442722;32;20003;-86
2022/07/29 09:26:29;;;;;;;;;;;;;;;35.66;61.08;99610.31;4440541;32;19973;-86
2022/07/29 09:28:54;;;;;;;;;;;;;;;35.66;61.09;99609.47;4440571;32;19981;-87
2022/07/29 09:31:21;;;;;;;;;;;;;;;35.73;61.09;99599.47;4454018;32;27825;-87
2022/07/29 09:33:47;;;;;;;;;;;;;;;35.72;61.08;99600.47;4440760;32;20007;-87
2022/07/29 09:36:12;;;;;;;;;;;;;;;35.98;61.10;99594.16;4439833;32;27859;-87
2022/07/29 09:38:37;;;;;;;;;;;;;;;36.18;61.11;99592.13;4440152;32;19988;-87
2022/07/29 09:41:03;;;;;;;;;;;;;;;36.09;61.10;99595.31;4453241;32;20009;-87
2022/07/29 09:43:28;;;;;;;;;;;;;;;36.09;61.10;99592.62;4440128;32;19999;-86
2022/07/29 09:45:53;;;;;;;;;;;;;;;36.22;61.11;99587.94;4439998;32;21253;-87
2022/07/29 09:48:19;;;;;;;;;;;;;;;36.25;61.11;99587.50;4439967;32;26346;-87
2022/07/29 09:50:45;;;;;;;;;;;;;;;36.50;61.12;99589.44;4440608;32;19989;-87
2022/07/29 09:53:10;;;;;;;;;;;;;;;36.75;61.13;99576.69;4440496;32;20020;-87
2022/07/29 09:55:50;;;;;;;;;;;;;;;36.79;61.14;99575.22;4455000;32;19966;-86
2022/07/29 09:58:19;;;;;;;;;;;;;;;36.74;61.13;99575.03;4440814;32;20006;-87
2022/07/29 10:00:45;;;;;;;;;;;;;;;36.99;61.15;99575.03;4440612;32;19993;-87
2022/07/29 10:03:11;;;;;;;;;;;;;;;37.06;61.15;99572.22;4440729;32;19996;-87
2022/07/29 10:05:36;;;;;;;;;;;;;;;37.14;61.15;99569.22;4440659;32;20312;-87
2022/07/29 10:08:02;;;;;;;;;;;;;;;37.32;61.16;99566.53;4454569;32;19993;-87
2022/07/29 10:10:30;;;;;;;;;;;;;;;37.16;61.15;99569.84;4454528;32;20308;-88
2022/07/29 10:12:57;;;;;;;;;;;;;;;36.83;61.13;99568.28;4454831;32;20318;-87
2022/07/29 10:15:26;;;;;;;;;;;;;;;36.86;61.13;99572.44;4453010;32;20518;-88
2022/07/29 10:17:52;;;;;;;;;;;;;;;36.75;61.13;99567.72;4455348;32;19953;-88
2022/07/29 10:20:17;;;;;;;;;;;;;;;36.91;61.14;99567.16;4454568;32;20015;-87
2022/07/29 10:22:43;;;;;;;;;;;;;;;36.93;61.14;99561.53;4443443;32;19985;-88
2022/07/29 10:25:09;;;;;;;;;;;;;;;36.93;61.14;99564.25;4440364;32;19977;-88
2022/07/29 10:27:34;;;;;;;;;;;;;;;37.28;61.16;99553.63;4454520;32;19972;-88
2022/07/29 10:30:01;;;;;;;;;;;;;;;37.62;61.18;99561.16;4454094;32;19989;-88
2022/07/29 10:32:30;;;;;;;;;;;;;;;37.83;61.18;99559.00;4440455;32;20052;-88
2022/07/29 10:34:55;;;;;;;;;;;;;;;38.00;61.18;99551.84;4427456;32;19991;-88
2022/07/29 10:37:26;;;;;;;;;;;;;;;38.12;61.20;99538.31;4454409;32;20044;-88
2022/07/29 10:41:25;;;;;;;;;;;;;;;38.31;61.21;99546.16;4453651;32;19982;-88
2022/07/29 10:42:48;;;;;;;;;;;;;;;38.41;61.22;99542.03;4442796;32;19997;-88
2022/07/29 10:45:13;;;;;;;;;;;;;;;38.43;61.22;99542.63;4439849;32;22710;-88
2022/07/29 10:47:38;;;;;;;;;;;;;;;38.62;61.22;99533.31;4449229;32;24344;-88
2022/07/29 10:50:04;;;;;;;;;;;;;;;38.88;61.23;99535.56;4445254;32;20120;-88
2022/07/29 10:52:48;;;;;;;;;;;;;;;38.97;61.23;99534.13;4454340;32;20344;-88
2022/07/29 10:55:30;;;;;;;;;;;;;;;39.19;61.25;99528.06;4454220;32;19985;-88
2022/07/29 10:58:25;;;;;;;;;;;;;;;39.21;61.24;99520.47;4427064;32;20257;-88
2022/07/29 11:00:50;;;;;;;;;;;;;;;39.14;61.25;99523.34;4443816;32;20004;-88
2022/07/29 11:03:34;;;;;;;;;;;;;;;39.27;61.25;99520.34;4454145;32;19984;-89
2022/07/29 11:06:00;;;;;;;;;;;;;;;39.32;61.26;99525.09;4454170;32;19987;-89
2022/07/29 11:08:25;;;;;;;;;;;;;;;39.40;61.26;99519.25;4439476;32;31026;-88
2022/07/29 11:10:51;;;;;;;;;;;;;;;39.61;61.27;99522.41;4440035;32;20004;-88
2022/07/29 11:13:35;;;;;;;;;;;;;;;39.64;61.28;99516.44;4454289;32;20882;-88
2022/07/29 11:16:00;;;;;;;;;;;;;;;39.79;61.27;99514.84;4453798;32;19992;-88
2022/07/29 11:18:25;;;;;;;;;;;;;;;39.82;61.28;99508.91;4453868;32;19989;-89
2022/07/29 11:20:53;;;;;;;;;;;;;;;39.80;61.28;99507.50;4439046;32;26128;-89
2022/07/29 11:23:26;;;;;;;;;;;;;;;39.57;61.27;99506.53;4453890;32;19981;-88
2022/07/29 11:26:10;;;;;;;;;;;;;;;39.34;61.26;99497.59;4439560;32;19987;-88
2022/07/29 11:28:39;;;;;;;;;;;;;;;38.95;61.24;99500.88;4454076;32;19992;-88
2022/07/29 11:31:04;;;;;;;;;;;;;;;38.99;61.25;99498.50;4452423;32;19997;-88
2022/07/29 11:33:30;;;;;;;;;;;;;;;39.00;61.25;99491.97;4426372;32;26682;-88
2022/07/29 11:36:11;;;;;;;;;;;;;;;39.25;61.25;99488.97;4426463;32;20261;-88
2022/07/29 11:38:36;;;;;;;;;;;;;;;39.54;61.26;99489.87;4453779;32;19973;-88
2022/07/29 11:41:16;;;;;;;;;;;;;;;39.76;61.27;99488.09;4452889;32;29048;-89
2022/07/29 11:43:48;;;;;;;;;;;;;;;39.95;61.30;99480.50;4453460;32;20060;-88
2022/07/29 11:46:13;;;;;;;;;;;;;;;40.13;61.30;99477.56;4453623;32;20026;-88
2022/07/29 11:48:41;;;;;;;;;;;;;;;40.15;61.30;99474.56;4439210;32;19977;-88
2022/07/29 11:51:08;;;;;;;;;;;;;;;40.40;61.31;99463.25;4454506;32;20005;-88
2022/07/29 11:53:34;;;;;;;;;;;;;;;40.31;61.30;99476.47;4455645;32;20346;-89
2022/07/29 11:55:59;;;;;;;;;;;;;;;40.60;61.31;99476.38;4438625;32;19989;-89
2022/07/29 11:58:24;;;;;;;;;;;;;;;40.63;61.32;99470.41;4436677;32;20227;-88
2022/07/29 12:00:49;;;;;;;;;;;;;;;40.29;61.31;99467.72;4454922;32;21953;-88
2022/07/29 12:03:24;;;;;;;;;;;;;;;40.01;61.29;99474.09;4440286;32;28232;-88
2022/07/29 12:05:50;;;;;;;;;;;;;;;39.80;61.29;99470.16;4455363;32;19990;-89
2022/07/29 12:08:18;;;;;;;;;;;;;;;39.59;61.27;99473.59;4455410;32;19961;-88
2022/07/29 12:10:45;;;;;;;;;;;;;;;39.48;61.27;99479.88;4455241;32;19981;-88
2022/07/29 12:13:11;;;;;;;;;;;;;;;39.17;61.25;99467.59;4455402;32;20049;-89
2022/07/29 12:15:36;;;;;;;;;;;;;;;39.36;61.26;99476.41;4455173;32;20318;-88
2022/07/29 12:18:11;;;;;;;;;;;;;;;39.51;61.27;99476.69;4441146;32;19977;-88
2022/07/29 12:20:36;;;;;;;;;;;;;;;39.62;61.28;99462.22;4440997;32;20001;-88
2022/07/29 12:23:04;;;;;;;;;;;;;;;39.84;61.28;99459.59;4454941;32;21156;-89
2022/07/29 12:25:32;;;;;;;;;;;;;;;39.99;61.29;99451.72;4441489;32;19969;-89
2022/07/29 12:27:59;;;;;;;;;;;;;;;40.04;61.30;99448.25;4441332;32;20009;-89
2022/07/29 12:30:24;;;;;;;;;;;;;;;39.98;61.29;99446.47;4441612;32;19958;-88
2022/07/29 12:32:49;;;;;;;;;;;;;;;40.07;61.30;99434.09;4431924;32;19999;-88
2022/07/29 12:35:15;;;;;;;;;;;;;;;40.03;61.29;99435.69;4441286;32;19985;-88
2022/07/29 12:37:41;;;;;;;;;;;;;;;39.94;61.29;99434.41;4441148;32;19961;-88
2022/07/29 12:40:07;;;;;;;;;;;;;;;40.03;61.29;99432.97;4437865;32;20000;-89
2022/07/29 12:42:32;;;;;;;;;;;;;;;40.16;61.30;99424.41;4440981;32;20288;-88
2022/07/29 12:44:57;;;;;;;;;;;;;;;40.37;61.30;99425.53;4454226;32;19992;-88
2022/07/29 12:47:23;;;;;;;;;;;;;;;40.58;61.32;99424.78;4439988;32;20267;-88
2022/07/29 12:49:48;;;;;;;;;;;;;;;40.51;61.31;99415.97;4437424;32;20024;-87